West Yellowstone, Montana
Current Conditions -  °F | °C
As of 5:56 AM on Thursday 27 Nov 2014 (Local Time) from KDIJ Reporting Station
Clear Clear  
Wind Chill: 34°   Ceiling: Unl
Heat Index: 42°   Visibility: 10mi
Dew Point: 26°   Wind: 16mph
Humidity: 53%   Direction: 200°SSW
Pressure: 30.22"   Gusts: 21mph
Location:  44.66°N, 111.1°W
Report Text: KDIJ 271256Z AUTO 20014G18KT 10SM CLR 06/M03 A3022 RMK AO2 T00551033 SLP204
Loading
Personal Weather Stations






























Interactive Weather Map New forecast layout! Learn more

10-Day Weather Forecast

Advertisements
Track Severe Weather on mobile